FW4407 Metamorfossi GR current weather conditions

sailwx.info

Wind from 018 at 0 knots gusting 4

Air temperature 12.2° C
Dewpoint 7.1° C

Last reported at 2019-Dec-08 20:45 UTC.
Time now 2019-Dec-08 21:34 UTC

Location: N 38°03' E 023°45'.
View on Google Maps.

See reports from other nearby stations

  
Tides and Currents Weather Stations Pressure Air Temp Water Temp Dewpoint Dewpoint Depression Visibility Wind Speed Wind Dir Waves Ship Positions
date/time (UTC)wind fromknots sea level pressurealtimeterstation pressurevisibilityair tempwater tempwave heightnotes
2019-Dec-08 20:45 018 0 gusting 4 12.2
2019-Dec-08 20:35 357 12.8
2019-Dec-08 20:25 103 2 gusting 6 12.8
2019-Dec-08 20:15 108 4 gusting 11 12.2
2019-Dec-08 20:05 104 3 gusting 8 12.2
2019-Dec-08 19:55 110 3 gusting 6 12.8
2019-Dec-08 19:45 140 0 gusting 4 12.8
2019-Dec-08 19:35 121 1 gusting 4 12.8
2019-Dec-08 19:25 121 2 gusting 6 12.8
2019-Dec-08 19:15 113 3 gusting 11 12.8
2019-Dec-08 19:05 131 3 gusting 8 12.8
2019-Dec-08 18:55 133 0 gusting 4 12.2
2019-Dec-08 18:45 122 4 gusting 8 12.2
2019-Dec-08 18:35 092 1 gusting 6 11.7
2019-Dec-08 18:25 117 1 gusting 6 11.7
2019-Dec-08 18:05 12.2
2019-Dec-08 17:55 019 12.2
2019-Dec-08 17:45 250 12.2
2019-Dec-08 17:35 128 0 gusting 4 12.2
2019-Dec-08 17:25 12.2
2019-Dec-08 17:15 12.8
2019-Dec-08 17:05 126 12.8
2019-Dec-08 16:55 134 12.8
2019-Dec-08 16:45 12.8
2019-Dec-08 16:35 213 12.8
2019-Dec-08 16:25 179 13.3
2019-Dec-08 16:15 13.3
2019-Dec-08 16:05 135 13.9
2019-Dec-08 15:55 125 0 gusting 1 13.9
2019-Dec-08 15:45 138 14.4
2019-Dec-08 15:35 099 1 gusting 6 14.4
2019-Dec-08 15:25 037 15.0
2019-Dec-08 15:15 096 0 gusting 4 15.0
2019-Dec-08 15:05 022 1 gusting 4 15.6
2019-Dec-08 14:55 017 3 gusting 6 15.6
2019-Dec-08 14:45 027 4 gusting 11 16.1
2019-Dec-08 14:35 021 4 gusting 11 16.1
2019-Dec-08 14:25 026 3 gusting 8 16.7
2019-Dec-08 14:15 024 4 gusting 8 16.7
2019-Dec-08 14:05 359 3 gusting 8 17.2
2019-Dec-08 13:55 006 2 gusting 8 17.2
2019-Dec-08 13:45 008 2 gusting 8 17.2
2019-Dec-08 13:35 005 2 gusting 8 17.2
2019-Dec-08 13:25 007 3 gusting 6 17.2
2019-Dec-08 13:15 004 2 gusting 6 17.2
2019-Dec-08 13:05 004 3 gusting 8 17.8
2019-Dec-08 12:55 009 4 gusting 13 17.8
2019-Dec-08 12:45 027 3 gusting 8 17.8
2019-Dec-08 12:35 021 4 gusting 8 17.8
2019-Dec-08 12:25 024 4 gusting 11 17.8
2019-Dec-08 12:15 005 5 gusting 11 17.8
2019-Dec-08 12:05 012 5 gusting 13 17.8
2019-Dec-08 11:55 003 3 gusting 8 17.8
2019-Dec-08 11:45 023 2 gusting 6 17.8
2019-Dec-08 11:35 351 3 gusting 8 17.8
2019-Dec-08 11:25 012 3 gusting 6 17.8
2019-Dec-08 11:15 354 3 gusting 8 17.8
2019-Dec-08 11:05 347 6 gusting 13 17.8
2019-Dec-08 10:55 015 5 gusting 11 17.8
2019-Dec-08 10:45 353 4 gusting 13 18.3
2019-Dec-08 10:35 334 1 gusting 8 18.3
2019-Dec-08 10:25 336 1 gusting 6 17.8
2019-Dec-08 10:15 293 0 gusting 4 17.8
2019-Dec-08 10:05 343 0 gusting 6 17.8
2019-Dec-08 09:55 344 0 gusting 4 17.8
2019-Dec-08 09:45 315 0 gusting 6 17.8
2019-Dec-08 09:35 017 1 gusting 6 17.8
2019-Dec-08 09:25 229 0 gusting 4 17.2
2019-Dec-08 09:15 245 17.2
2019-Dec-08 09:05 262 16.7
2019-Dec-08 08:55 255 16.7
2019-Dec-08 08:45 16.1
2019-Dec-08 08:35 131 0 gusting 4 16.1
2019-Dec-08 08:25 15.6
2019-Dec-08 08:15 15.6
2019-Dec-08 08:05 235 15.0
2019-Dec-08 07:55 14.4
2019-Dec-08 07:45 14.4
2019-Dec-08 07:35 13.9
2019-Dec-08 07:25 305 13.3
2019-Dec-08 07:15 12.2
2019-Dec-08 07:05 167 11.7
2019-Dec-08 06:55 102 0 gusting 4 10.6
2019-Dec-08 06:45 128 0 gusting 4 10.6
2019-Dec-08 06:35 122 10.0
2019-Dec-08 06:25 098 1 gusting 4 10.0
2019-Dec-08 06:15 027 10.0
2019-Dec-08 06:05 129 0 gusting 4 10.0
2019-Dec-08 05:55 015 10.0
2019-Dec-08 05:45 126 0 gusting 4 10.0
2019-Dec-08 05:35 10.0
2019-Dec-08 05:25 005 10.0
2019-Dec-08 05:15 133 10.0
2019-Dec-08 05:05 175 10.0
2019-Dec-08 04:55 10.0
2019-Dec-08 04:45 10.0
2019-Dec-08 04:35 119 0 gusting 4 10.0
2019-Dec-08 04:25 157 10.0
2019-Dec-08 04:15 086 10.0
2019-Dec-08 04:05 104 10.0
2019-Dec-08 03:55 096 10.0
2019-Dec-08 03:46 10.0
2019-Dec-08 03:36 114 10.0
2019-Dec-08 03:25 113 0 gusting 4 10.0
2019-Dec-08 03:15 125 10.0
2019-Dec-08 03:06 032 10.6
2019-Dec-08 02:56 10.6
2019-Dec-08 02:45 194 10.6
2019-Dec-08 02:35 119 1 gusting 6 10.6
2019-Dec-08 02:26 157 10.6
2019-Dec-08 02:16 10.0
2019-Dec-08 02:05 118 0 gusting 1 10.0
2019-Dec-08 01:55 109 0 gusting 1 10.0
2019-Dec-08 01:46 131 0 gusting 1 10.0
2019-Dec-08 01:36 10.0
2019-Dec-08 01:25 10.6
2019-Dec-08 01:15 307 10.6
2019-Dec-08 01:06 148 10.6
2019-Dec-08 00:56 10.6
2019-Dec-08 00:45 028 10.6
2019-Dec-08 00:35 10.6
2019-Dec-08 00:26 097 11.1
2019-Dec-08 00:16 114 0 gusting 1 11.1
2019-Dec-08 00:05 130 11.7
2019-Dec-07 23:55 022 11.7
2019-Dec-07 23:46 105 0 gusting 4 12.2
2019-Dec-07 23:36 115 1 gusting 1 11.7
2019-Dec-07 23:25 11.7
2019-Dec-07 23:15 11.1
2019-Dec-07 23:06 11.1
2019-Dec-07 22:56 132 10.6
2019-Dec-07 22:45 120 1 gusting 4 10.6
2019-Dec-07 22:35 11.1
2019-Dec-07 22:26 036 11.1
2019-Dec-07 22:16 013 0 gusting 4 11.1
2019-Dec-07 22:05 030 0 gusting 1 11.7
2019-Dec-07 21:55 135 11.7
2019-Dec-07 21:46 111 11.7
2019-Dec-07 21:36 359 11.1
2019-Dec-07 21:25 132 11.1
2019-Dec-07 21:15 139 11.1
2019-Dec-07 21:06 123 0 gusting 4 11.1
2019-Dec-07 20:56 118 11.1
2019-Dec-07 20:45 109 0 gusting 1 11.7
2019-Dec-07 20:35 11.7
2019-Dec-07 20:26 068 12.2
2019-Dec-07 20:16 024 12.2
2019-Dec-07 20:05 12.2
2019-Dec-07 19:55 156 12.2
2019-Dec-07 19:46 147 12.2
2019-Dec-07 19:36 036 0 gusting 1 12.2
2019-Dec-07 19:25 003 12.2
2019-Dec-07 19:15 117 0 gusting 4 11.7
2019-Dec-07 19:06 105 0 gusting 4 11.7
2019-Dec-07 18:56 118 11.7
2019-Dec-07 18:45 136 11.7
2019-Dec-07 18:35 147 0 gusting 1 12.2
2019-Dec-07 18:26 118 12.2
2019-Dec-07 18:16 030 12.2
2019-Dec-07 18:05 12.8
2019-Dec-07 17:55 115 0 gusting 4 12.8
2019-Dec-07 17:46 12.8
2019-Dec-07 17:36 12.8
2019-Dec-07 17:25 13.3
2019-Dec-07 17:15 13.3
2019-Dec-07 17:06 13.9
2019-Dec-07 16:56 128 13.9
2019-Dec-07 16:45 151 13.9
2019-Dec-07 16:35 210 13.9
2019-Dec-07 16:26 196 13.9
2019-Dec-07 16:16 13.9
2019-Dec-07 16:05 13.9
2019-Dec-07 15:55 14.4
2019-Dec-07 15:46 133 14.4
2019-Dec-07 15:36 14.4
2019-Dec-07 15:25 15.0
2019-Dec-07 15:15 289 0 gusting 1 15.6
2019-Dec-07 15:06 16.1
2019-Dec-07 14:56 226 16.7
2019-Dec-07 14:45 219 17.2
2019-Dec-07 14:35 239 17.2
2019-Dec-07 14:26 252 16.7
2019-Dec-07 14:16 234 16.1
2019-Dec-07 14:05 240 16.1
2019-Dec-07 13:55 217 16.1
2019-Dec-07 13:46 242 16.1
2019-Dec-07 13:36 16.7
2019-Dec-07 13:25 291 16.7
2019-Dec-07 13:15 234 16.7
2019-Dec-07 13:06 247 0 gusting 4 16.7
2019-Dec-07 12:56 227 17.2
2019-Dec-07 12:45 222 17.2
2019-Dec-07 12:35 244 17.8
2019-Dec-07 12:26 248 0 gusting 4 18.3
2019-Dec-07 12:16 213 0 gusting 4 18.9
2019-Dec-07 12:05 234 0 gusting 6 18.9
2019-Dec-07 11:55 215 1 gusting 6 18.9
2019-Dec-07 11:46 207 1 gusting 4 18.9
2019-Dec-07 11:36 218 0 gusting 4 18.9
2019-Dec-07 11:25 237 18.9
2019-Dec-07 11:15 238 18.3
2019-Dec-07 11:06 261 0 gusting 4 18.3
2019-Dec-07 10:56 252 17.2
2019-Dec-07 10:45 228 16.7
2019-Dec-07 10:35 238 0 gusting 4 16.1
2019-Dec-07 10:26 15.6
2019-Dec-07 10:16 15.6
2019-Dec-07 10:05 15.6
2019-Dec-07 09:55 211 0 gusting 1 15.6
2019-Dec-07 09:45 296 15.6
2019-Dec-07 09:35 227 15.0
2019-Dec-07 09:25 314 15.0
2019-Dec-07 09:15 215 15.0
2019-Dec-07 09:05 15.0
2019-Dec-07 08:55 319 15.0
2019-Dec-07 08:45 14.4
2019-Dec-07 08:35 14.4
2019-Dec-07 08:25 14.4
2019-Dec-07 08:15 13.9
2019-Dec-07 08:05 119 13.9
2019-Dec-07 07:55 139 0 gusting 1 13.9
2019-Dec-07 07:45 113 13.3
2019-Dec-07 07:35 13.3
2019-Dec-07 07:25 13.3
2019-Dec-07 07:15 12.8
2019-Dec-07 07:05 12.8
2019-Dec-07 06:55 12.2
2019-Dec-07 06:45 12.2
2019-Dec-07 06:35 11.7
2019-Dec-07 06:25 11.7
2019-Dec-07 06:15 11.7
2019-Dec-07 06:05 11.7
2019-Dec-07 05:55 11.1
2019-Dec-07 05:45 11.1
2019-Dec-07 05:35 11.1
2019-Dec-07 05:25 11.1
2019-Dec-07 05:15 11.1
2019-Dec-07 05:05 11.1
2019-Dec-07 04:55 11.1
2019-Dec-07 04:45 11.1
2019-Dec-07 04:35 11.1
2019-Dec-07 04:25 10.6
2019-Dec-07 04:15 119 11.1
2019-Dec-07 04:05 11.1
2019-Dec-07 03:55 111 11.1
2019-Dec-07 03:45 11.1
2019-Dec-07 03:35 11.1
2019-Dec-07 03:25 11.1
2019-Dec-07 03:15 10.6
2019-Dec-07 03:05 116 10.6
2019-Dec-07 02:55 10.6
2019-Dec-07 02:45 10.6
2019-Dec-07 02:35 10.6
2019-Dec-07 02:25 10.6
2019-Dec-07 02:15 10.6
2019-Dec-07 02:05 10.6
2019-Dec-07 01:55 036 10.6
2019-Dec-07 01:45 10.6
2019-Dec-07 01:35 10.6
2019-Dec-07 01:25 10.6
2019-Dec-07 01:15 10.6
2019-Dec-07 01:05 10.6
2019-Dec-07 00:55 10.6
2019-Dec-07 00:45 10.6
2019-Dec-07 00:35 10.6
2019-Dec-07 00:25 10.6
2019-Dec-07 00:15 10.6
2019-Dec-07 00:05 126 10.6
2019-Dec-06 23:55 118 10.6
2019-Dec-06 23:45 007 10.6
2019-Dec-06 23:35 10.6
2019-Dec-06 23:25 10.6
2019-Dec-06 23:15 312 10.6
2019-Dec-06 23:05 356 10.6
2019-Dec-06 22:55 10.6
2019-Dec-06 22:45 10.6
2019-Dec-06 22:35 10.6
2019-Dec-06 22:25 10.6
2019-Dec-06 22:15 10.0
2019-Dec-06 22:05 10.0
2019-Dec-06 21:55 102 10.0
2019-Dec-06 21:45 133 10.0
2019-Dec-06 21:36 008 10.0
2019-Dec-06 21:25 014 10.0
2019-Dec-06 21:15 150 10.0
2019-Dec-06 21:05 340 9.4